sensor_id;sensor_type;location;lat;lon;timestamp;pressure;altitude;pressure_sealevel;temperature;humidity
67397;BME280;57728;50.448;18.824;2022-10-16T00:00:27;98046.31;;;12.86;70.88
67397;BME280;57728;50.448;18.824;2022-10-16T00:02:28;98044.91;;;12.88;70.64
67397;BME280;57728;50.448;18.824;2022-10-16T00:04:30;98039.81;;;12.87;70.75
67397;BME280;57728;50.448;18.824;2022-10-16T00:06:32;98047.94;;;12.87;70.64
67397;BME280;57728;50.448;18.824;2022-10-16T00:08:34;98043.09;;;12.83;70.96
67397;BME280;57728;50.448;18.824;2022-10-16T00:10:36;98041.78;;;12.81;70.95
67397;BME280;57728;50.448;18.824;2022-10-16T00:12:38;98036.09;;;12.82;71.28
67397;BME280;57728;50.448;18.824;2022-10-16T00:14:39;98045.81;;;12.83;71.14
67397;BME280;57728;50.448;18.824;2022-10-16T00:16:42;98040.91;;;12.86;70.70
67397;BME280;57728;50.448;18.824;2022-10-16T00:18:44;98045.22;;;12.87;70.70
67397;BME280;57728;50.448;18.824;2022-10-16T00:20:46;98041.13;;;12.89;70.87
67397;BME280;57728;50.448;18.824;2022-10-16T00:22:47;98033.59;;;12.86;70.67
67397;BME280;57728;50.448;18.824;2022-10-16T00:24:49;98040.91;;;12.86;70.86
67397;BME280;57728;50.448;18.824;2022-10-16T00:26:50;98040.91;;;12.86;70.97
67397;BME280;57728;50.448;18.824;2022-10-16T00:28:51;98042.50;;;12.87;70.82
67397;BME280;57728;50.448;18.824;2022-10-16T00:30:54;98041.72;;;12.86;70.69
67397;BME280;57728;50.448;18.824;2022-10-16T00:32:56;98040.91;;;12.86;70.87
67397;BME280;57728;50.448;18.824;2022-10-16T00:34:57;98034.69;;;12.85;71.06
67397;BME280;57728;50.448;18.824;2022-10-16T00:36:59;98049.03;;;12.86;70.77
67397;BME280;57728;50.448;18.824;2022-10-16T00:39:01;98039.28;;;12.85;71.02
67397;BME280;57728;50.448;18.824;2022-10-16T00:41:03;98050.41;;;12.83;71.10
67397;BME280;57728;50.448;18.824;2022-10-16T00:43:14;98045.59;;;12.80;70.88
67397;BME280;57728;50.448;18.824;2022-10-16T00:45:35;98047.78;;;12.78;71.30
67397;BME280;57728;50.448;18.824;2022-10-16T00:47:40;98043.78;;;12.75;71.25
67397;BME280;57728;50.448;18.824;2022-10-16T00:49:50;98049.19;;;12.75;71.01
67397;BME280;57728;50.448;18.824;2022-10-16T00:51:55;98046.78;;;12.74;71.13
67397;BME280;57728;50.448;18.824;2022-10-16T00:53:56;98055.16;;;12.72;71.17
67397;BME280;57728;50.448;18.824;2022-10-16T00:55:59;98051.16;;;12.70;71.28
67397;BME280;57728;50.448;18.824;2022-10-16T00:58:01;98033.78;;;12.57;71.24
67397;BME280;57728;50.448;18.824;2022-10-16T01:00:06;98050.63;;;12.68;71.36
67397;BME280;57728;50.448;18.824;2022-10-16T01:02:13;98041.00;;;12.62;71.32
67397;BME280;57728;50.448;18.824;2022-10-16T01:04:16;98052.84;;;12.66;71.40
67397;BME280;57728;50.448;18.824;2022-10-16T01:06:24;98050.19;;;12.61;71.71
67397;BME280;57728;50.448;18.824;2022-10-16T01:08:58;98040.72;;;12.63;71.23
67397;BME280;57728;50.448;18.824;2022-10-16T01:11:22;98041.28;;;12.60;71.50
67397;BME280;57728;50.448;18.824;2022-10-16T01:13:38;98049.19;;;12.56;71.69
67397;BME280;57728;50.448;18.824;2022-10-16T01:18:16;98034.41;;;12.49;71.40
67397;BME280;57728;50.448;18.824;2022-10-16T01:20:42;98050.59;;;12.54;71.45
67397;BME280;57728;50.448;18.824;2022-10-16T01:28:04;98040.84;;;12.53;71.79
67397;BME280;57728;50.448;18.824;2022-10-16T01:30:13;98050.84;;;12.52;71.55
67397;BME280;57728;50.448;18.824;2022-10-16T01:32:40;98046.25;;;12.53;71.44
67397;BME280;57728;50.448;18.824;2022-10-16T01:35:13;98051.97;;;12.51;71.40
67397;BME280;57728;50.448;18.824;2022-10-16T01:39:45;98045.75;;;12.51;71.42
67397;BME280;57728;50.448;18.824;2022-10-16T01:42:00;98051.16;;;12.51;71.66
67397;BME280;57728;50.448;18.824;2022-10-16T01:46:19;98048.69;;;12.54;71.32
67397;BME280;57728;50.448;18.824;2022-10-16T01:48:23;98053.28;;;12.54;71.26
67397;BME280;57728;50.448;18.824;2022-10-16T01:50:26;98048.47;;;12.51;71.51
67397;BME280;57728;50.448;18.824;2022-10-16T01:52:29;98046.84;;;12.50;71.43
67397;BME280;57728;50.448;18.824;2022-10-16T01:54:36;98049.34;;;12.46;71.41
67397;BME280;57728;50.448;18.824;2022-10-16T01:56:43;98055.03;;;12.45;71.79
67397;BME280;57728;50.448;18.824;2022-10-16T01:58:53;98053.41;;;12.44;71.98
67397;BME280;57728;50.448;18.824;2022-10-16T02:00:58;98053.16;;;12.45;71.97
67397;BME280;57728;50.448;18.824;2022-10-16T02:03:02;98055.84;;;12.45;71.71
67397;BME280;57728;50.448;18.824;2022-10-16T02:05:26;98059.63;;;12.44;71.74
67397;BME280;57728;50.448;18.824;2022-10-16T02:07:31;98067.72;;;12.44;71.90
67397;BME280;57728;50.448;18.824;2022-10-16T02:09:34;98070.16;;;12.46;71.61
67397;BME280;57728;50.448;18.824;2022-10-16T02:11:37;98061.25;;;12.45;71.69
67397;BME280;57728;50.448;18.824;2022-10-16T02:13:44;98067.38;;;12.51;71.91
67397;BME280;57728;50.448;18.824;2022-10-16T02:15:49;98075.72;;;12.54;71.24
67397;BME280;57728;50.448;18.824;2022-10-16T02:17:51;98074.31;;;12.57;71.45
67397;BME280;57728;50.448;18.824;2022-10-16T02:19:55;98079.44;;;12.58;71.38
67397;BME280;57728;50.448;18.824;2022-10-16T02:22:03;98071.81;;;12.61;71.57
67397;BME280;57728;50.448;18.824;2022-10-16T02:26:38;98064.00;;;12.59;70.90
67397;BME280;57728;50.448;18.824;2022-10-16T02:28:51;98064.59;;;12.56;71.49
67397;BME280;57728;50.448;18.824;2022-10-16T02:31:03;98068.41;;;12.55;71.37
67397;BME280;57728;50.448;18.824;2022-10-16T02:33:12;98068.19;;;12.51;71.45
67397;BME280;57728;50.448;18.824;2022-10-16T02:35:18;98062.56;;;12.48;71.69
67397;BME280;57728;50.448;18.824;2022-10-16T02:37:22;98064.00;;;12.40;71.63
67397;BME280;57728;50.448;18.824;2022-10-16T02:39:28;98076.13;;;12.43;71.77
67397;BME280;57728;50.448;18.824;2022-10-16T02:41:32;98062.94;;;12.41;72.15
67397;BME280;57728;50.448;18.824;2022-10-16T02:43:34;98070.50;;;12.39;71.71
67397;BME280;57728;50.448;18.824;2022-10-16T02:45:35;98071.31;;;12.40;71.89
67397;BME280;57728;50.448;18.824;2022-10-16T02:47:37;98078.13;;;12.37;72.17
67397;BME280;57728;50.448;18.824;2022-10-16T02:49:39;98071.31;;;12.40;72.08
67397;BME280;57728;50.448;18.824;2022-10-16T02:51:40;98078.31;;;12.41;72.13
67397;BME280;57728;50.448;18.824;2022-10-16T02:53:41;98075.59;;;12.41;72.20
67397;BME280;57728;50.448;18.824;2022-10-16T02:55:44;98080.50;;;12.39;71.93
67397;BME280;57728;50.448;18.824;2022-10-16T02:57:45;98081.63;;;12.38;72.11
67397;BME280;57728;50.448;18.824;2022-10-16T02:59:46;98080.28;;;12.35;71.99
67397;BME280;57728;50.448;18.824;2022-10-16T03:01:48;98094.59;;;12.36;71.98
67397;BME280;57728;50.448;18.824;2022-10-16T03:03:49;98097.81;;;12.38;72.17
67397;BME280;57728;50.448;18.824;2022-10-16T03:05:51;98088.41;;;12.35;72.17
67397;BME280;57728;50.448;18.824;2022-10-16T03:07:52;98096.50;;;12.35;72.28
67397;BME280;57728;50.448;18.824;2022-10-16T03:09:53;98091.63;;;12.37;72.03
67397;BME280;57728;50.448;18.824;2022-10-16T03:11:56;98088.09;;;12.37;72.31
67397;BME280;57728;50.448;18.824;2022-10-16T03:13:57;98097.03;;;12.37;72.18
67397;BME280;57728;50.448;18.824;2022-10-16T03:15:59;98090.78;;;12.37;71.91
67397;BME280;57728;50.448;18.824;2022-10-16T03:18:00;98080.22;;;12.40;72.09
67397;BME280;57728;50.448;18.824;2022-10-16T03:20:03;98086.22;;;12.37;72.15
67397;BME280;57728;50.448;18.824;2022-10-16T03:22:04;98104.31;;;12.37;72.40
67397;BME280;57728;50.448;18.824;2022-10-16T03:24:06;98097.22;;;12.41;71.85
67397;BME280;57728;50.448;18.824;2022-10-16T03:26:07;98095.34;;;12.41;72.01
67397;BME280;57728;50.448;18.824;2022-10-16T03:28:09;98098.56;;;12.43;71.73
67397;BME280;57728;50.448;18.824;2022-10-16T03:30:10;98103.66;;;12.45;71.81
67397;BME280;57728;50.448;18.824;2022-10-16T03:32:12;98104.75;;;12.44;71.83
67397;BME280;57728;50.448;18.824;2022-10-16T03:34:13;98106.66;;;12.43;71.77
67397;BME280;57728;50.448;18.824;2022-10-16T03:36:15;98108.25;;;12.44;71.85
67397;BME280;57728;50.448;18.824;2022-10-16T03:38:17;98112.59;;;12.45;71.50
67397;BME280;57728;50.448;18.824;2022-10-16T03:40:18;98121.50;;;12.46;71.82
67397;BME280;57728;50.448;18.824;2022-10-16T03:42:19;98108.88;;;12.41;71.91
67397;BME280;57728;50.448;18.824;2022-10-16T03:44:21;98125.00;;;12.46;71.57
67397;BME280;57728;50.448;18.824;2022-10-16T03:46:23;98115.28;;;12.45;71.65
67397;BME280;57728;50.448;18.824;2022-10-16T03:48:24;98111.75;;;12.45;71.43
67397;BME280;57728;50.448;18.824;2022-10-16T03:50:26;98107.75;;;12.42;71.86
67397;BME280;57728;50.448;18.824;2022-10-16T03:52:27;98111.25;;;12.43;71.61
67397;BME280;57728;50.448;18.824;2022-10-16T03:54:28;98108.56;;;12.43;71.57
67397;BME280;57728;50.448;18.824;2022-10-16T03:56:30;98106.97;;;12.42;72.04
67397;BME280;57728;50.448;18.824;2022-10-16T03:58:31;98110.72;;;12.41;71.98
67397;BME280;57728;50.448;18.824;2022-10-16T04:00:33;98118.84;;;12.41;72.18
67397;BME280;57728;50.448;18.824;2022-10-16T04:02:35;98116.97;;;12.41;71.86
67397;BME280;57728;50.448;18.824;2022-10-16T04:04:36;98113.97;;;12.43;71.82
67397;BME280;57728;50.448;18.824;2022-10-16T04:06:38;98120.69;;;12.45;71.80
67397;BME280;57728;50.448;18.824;2022-10-16T04:08:42;98120.69;;;12.45;71.67
67397;BME280;57728;50.448;18.824;2022-10-16T04:10:45;98113.97;;;12.43;71.48
67397;BME280;57728;50.448;18.824;2022-10-16T04:12:46;98119.59;;;12.46;71.82
67397;BME280;57728;50.448;18.824;2022-10-16T04:14:48;98125.22;;;12.50;71.55
67397;BME280;57728;50.448;18.824;2022-10-16T04:16:49;98133.03;;;12.51;71.78
67397;BME280;57728;50.448;18.824;2022-10-16T04:18:50;98129.22;;;12.52;71.85
67397;BME280;57728;50.448;18.824;2022-10-16T04:20:53;98125.22;;;12.50;71.92
67397;BME280;57728;50.448;18.824;2022-10-16T04:22:54;98122.22;;;12.51;71.73
67397;BME280;57728;50.448;18.824;2022-10-16T04:24:55;98115.22;;;12.50;71.81
67397;BME280;57728;50.448;18.824;2022-10-16T04:26:57;98128.44;;;12.52;71.65
67397;BME280;57728;50.448;18.824;2022-10-16T04:28:59;98126.81;;;12.51;71.94
67397;BME280;57728;50.448;18.824;2022-10-16T04:31:03;98130.09;;;12.48;71.92
67397;BME280;57728;50.448;18.824;2022-10-16T04:33:07;98111.34;;;12.38;71.72
67397;BME280;57728;50.448;18.824;2022-10-16T04:35:09;98133.38;;;12.45;71.81
67397;BME280;57728;50.448;18.824;2022-10-16T04:37:11;98126.38;;;12.44;72.12
67397;BME280;57728;50.448;18.824;2022-10-16T04:39:13;98129.38;;;12.42;71.81
67397;BME280;57728;50.448;18.824;2022-10-16T04:41:14;98128.84;;;12.40;72.11
67397;BME280;57728;50.448;18.824;2022-10-16T04:43:15;98123.75;;;12.39;72.16
67397;BME280;57728;50.448;18.824;2022-10-16T04:45:17;98109.50;;;12.33;72.02
67397;BME280;57728;50.448;18.824;2022-10-16T04:47:18;98132.16;;;12.37;72.22
67397;BME280;57728;50.448;18.824;2022-10-16T04:49:19;98131.06;;;12.38;72.25
67397;BME280;57728;50.448;18.824;2022-10-16T04:51:21;98141.31;;;12.36;72.44
67397;BME280;57728;50.448;18.824;2022-10-16T04:53:22;98135.94;;;12.36;71.98
67397;BME280;57728;50.448;18.824;2022-10-16T04:55:23;98130.03;;;12.34;72.33
67397;BME280;57728;50.448;18.824;2022-10-16T04:57:25;98139.72;;;12.35;72.54
67397;BME280;57728;50.448;18.824;2022-10-16T04:59:27;98128.91;;;12.35;72.41
67397;BME280;57728;50.448;18.824;2022-10-16T05:01:28;98124.63;;;12.34;72.48
67397;BME280;57728;50.448;18.824;2022-10-16T05:03:30;98131.06;;;12.38;72.30
67397;BME280;57728;50.448;18.824;2022-10-16T05:05:31;98141.56;;;12.40;72.07
67397;BME280;57728;50.448;18.824;2022-10-16T05:07:32;98133.97;;;12.42;72.26
67397;BME280;57728;50.448;18.824;2022-10-16T05:09:34;98156.41;;;12.42;71.76
67397;BME280;57728;50.448;18.824;2022-10-16T05:11:35;98147.19;;;12.43;71.88
67397;BME280;57728;50.448;18.824;2022-10-16T05:13:37;98152.53;;;12.48;71.80
67397;BME280;57728;50.448;18.824;2022-10-16T05:15:39;98154.16;;;12.49;71.77
67397;BME280;57728;50.448;18.824;2022-10-16T05:17:40;98161.16;;;12.50;71.99
67397;BME280;57728;50.448;18.824;2022-10-16T05:19:41;98155.44;;;12.52;71.67
67397;BME280;57728;50.448;18.824;2022-10-16T05:21:43;98165.69;;;12.55;71.64
67397;BME280;57728;50.448;18.824;2022-10-16T05:23:44;98158.38;;;12.55;71.33
67397;BME280;57728;50.448;18.824;2022-10-16T05:25:53;98171.31;;;12.58;71.66
67397;BME280;57728;50.448;18.824;2022-10-16T05:27:56;98163.53;;;12.57;71.20
67397;BME280;57728;50.448;18.824;2022-10-16T05:29:57;98164.31;;;12.57;71.60
67397;BME280;57728;50.448;18.824;2022-10-16T05:31:58;98161.84;;;12.61;71.29
67397;BME280;57728;50.448;18.824;2022-10-16T05:34:02;98162.13;;;12.60;71.17
67397;BME280;57728;50.448;18.824;2022-10-16T05:36:05;98170.75;;;12.62;71.25
67397;BME280;57728;50.448;18.824;2022-10-16T05:38:08;98167.25;;;12.61;71.36
67397;BME280;57728;50.448;18.824;2022-10-16T05:40:10;98157.34;;;12.51;71.11
67397;BME280;57728;50.448;18.824;2022-10-16T05:42:13;98170.53;;;12.58;71.50
67397;BME280;57728;50.448;18.824;2022-10-16T05:44:15;98172.69;;;12.56;71.36
67397;BME280;57728;50.448;18.824;2022-10-16T05:46:17;98175.41;;;12.56;71.22
67397;BME280;57728;50.448;18.824;2022-10-16T05:48:18;98178.09;;;12.56;71.08
67397;BME280;57728;50.448;18.824;2022-10-16T05:50:20;98187.25;;;12.60;71.18
67397;BME280;57728;50.448;18.824;2022-10-16T05:52:22;98195.59;;;12.64;70.67
67397;BME280;57728;50.448;18.824;2022-10-16T05:54:24;98198.44;;;12.72;70.50
67397;BME280;57728;50.448;18.824;2022-10-16T05:56:25;98192.16;;;12.77;70.71
67397;BME280;57728;50.448;18.824;2022-10-16T05:58:36;98191.31;;;12.81;70.33
67397;BME280;57728;50.448;18.824;2022-10-16T06:00:38;98200.16;;;12.87;69.91
67397;BME280;57728;50.448;18.824;2022-10-16T06:02:39;98200.88;;;12.93;69.69
67397;BME280;57728;50.448;18.824;2022-10-16T06:04:41;98194.34;;;12.99;69.33
67397;BME280;57728;50.448;18.824;2022-10-16T06:06:42;98200.25;;;13.01;69.16
67397;BME280;57728;50.448;18.824;2022-10-16T06:08:44;98202.38;;;13.04;68.66
67397;BME280;57728;50.448;18.824;2022-10-16T06:10:47;98206.91;;;13.09;68.60
67397;BME280;57728;50.448;18.824;2022-10-16T06:12:48;98218.75;;;13.13;68.46
67397;BME280;57728;50.448;18.824;2022-10-16T06:14:49;98216.00;;;13.18;68.68
67397;BME280;57728;50.448;18.824;2022-10-16T06:16:52;98199.00;;;13.12;68.07
67397;BME280;57728;50.448;18.824;2022-10-16T06:18:54;98208.16;;;13.16;68.34
67397;BME280;57728;50.448;18.824;2022-10-16T06:20:57;98212.69;;;13.21;68.64
67397;BME280;57728;50.448;18.824;2022-10-16T06:23:00;98213.22;;;13.23;68.45
67397;BME280;57728;50.448;18.824;2022-10-16T06:25:01;98220.97;;;13.29;68.27
67397;BME280;57728;50.448;18.824;2022-10-16T06:27:03;98221.47;;;13.31;68.06
67397;BME280;57728;50.448;18.824;2022-10-16T06:29:05;98224.09;;;13.37;67.76
67397;BME280;57728;50.448;18.824;2022-10-16T06:31:09;98224.84;;;13.42;67.41
67397;BME280;57728;50.448;18.824;2022-10-16T06:33:11;98227.75;;;13.46;67.36
67397;BME280;57728;50.448;18.824;2022-10-16T06:35:13;98234.47;;;13.48;67.12
67397;BME280;57728;50.448;18.824;2022-10-16T06:37:14;98233.00;;;13.56;67.03
67397;BME280;57728;50.448;18.824;2022-10-16T06:39:15;98234.81;;;13.61;67.04
67397;BME280;57728;50.448;18.824;2022-10-16T06:41:20;98235.84;;;13.65;66.58
67397;BME280;57728;50.448;18.824;2022-10-16T06:43:22;98234.94;;;13.69;66.55
67397;BME280;57728;50.448;18.824;2022-10-16T06:45:23;98242.78;;;13.71;66.67
67397;BME280;57728;50.448;18.824;2022-10-16T06:47:27;98234.88;;;13.74;66.07
67397;BME280;57728;50.448;18.824;2022-10-16T06:49:28;98238.81;;;13.82;66.02
67397;BME280;57728;50.448;18.824;2022-10-16T06:51:29;98228.19;;;13.86;66.40
67397;BME280;57728;50.448;18.824;2022-10-16T06:53:36;98232.19;;;13.88;66.04
67397;BME280;57728;50.448;18.824;2022-10-16T06:55:40;98236.81;;;13.88;65.91
67397;BME280;57728;50.448;18.824;2022-10-16T06:57:41;98228.47;;;13.84;65.93
67397;BME280;57728;50.448;18.824;2022-10-16T06:59:43;98245.84;;;13.83;65.60
67397;BME280;57728;50.448;18.824;2022-10-16T07:01:47;98238.81;;;13.82;65.90
67397;BME280;57728;50.448;18.824;2022-10-16T07:03:49;98251.03;;;13.79;65.66
67397;BME280;57728;50.448;18.824;2022-10-16T07:05:51;98247.81;;;13.77;66.13
67397;BME280;57728;50.448;18.824;2022-10-16T07:07:52;98248.91;;;13.76;66.13
67397;BME280;57728;50.448;18.824;2022-10-16T07:09:53;98249.72;;;13.77;66.23
67397;BME280;57728;50.448;18.824;2022-10-16T07:11:55;98257.16;;;13.85;65.73
67397;BME280;57728;50.448;18.824;2022-10-16T07:13:56;98260.31;;;13.92;65.85
67397;BME280;57728;50.448;18.824;2022-10-16T07:15:57;98272.38;;;14.00;65.46
67397;BME280;57728;50.448;18.824;2022-10-16T07:17:59;98261.06;;;14.12;65.36
67397;BME280;57728;50.448;18.824;2022-10-16T07:20:01;98258.72;;;14.24;64.91
67397;BME280;57728;50.448;18.824;2022-10-16T07:22:03;98257.13;;;14.37;64.96
67397;BME280;57728;50.448;18.824;2022-10-16T07:24:11;98255.50;;;14.49;64.34
67397;BME280;57728;50.448;18.824;2022-10-16T07:26:14;98262.25;;;14.52;64.46
67397;BME280;57728;50.448;18.824;2022-10-16T07:28:15;98259.22;;;14.53;63.86
67397;BME280;57728;50.448;18.824;2022-10-16T07:30:17;98258.53;;;14.48;64.11
67397;BME280;57728;50.448;18.824;2022-10-16T07:32:18;98269.78;;;14.55;64.63
67397;BME280;57728;50.448;18.824;2022-10-16T07:34:20;98266.28;;;14.54;64.01
67397;BME280;57728;50.448;18.824;2022-10-16T07:36:23;98277.03;;;14.60;64.40
67397;BME280;57728;50.448;18.824;2022-10-16T07:38:24;98276.13;;;14.64;64.11
67397;BME280;57728;50.448;18.824;2022-10-16T07:40:25;98270.78;;;14.73;63.88
67397;BME280;57728;50.448;18.824;2022-10-16T07:42:28;98273.13;;;14.79;63.41
67397;BME280;57728;50.448;18.824;2022-10-16T07:44:29;98276.72;;;14.89;63.04
67397;BME280;57728;50.448;18.824;2022-10-16T07:46:31;98282.75;;;14.99;62.76
67397;BME280;57728;50.448;18.824;2022-10-16T07:48:35;98277.81;;;15.01;62.08
67397;BME280;57728;50.448;18.824;2022-10-16T07:50:36;98288.94;;;15.14;62.01
67397;BME280;57728;50.448;18.824;2022-10-16T07:52:38;98269.78;;;15.24;61.58
67397;BME280;57728;50.448;18.824;2022-10-16T07:54:42;98285.75;;;15.62;60.98
67397;BME280;57728;50.448;18.824;2022-10-16T07:56:45;98284.06;;;15.88;60.33
67397;BME280;57728;50.448;18.824;2022-10-16T07:58:46;98272.16;;;16.07;59.37
67397;BME280;57728;50.448;18.824;2022-10-16T08:00:50;98278.91;;;16.32;58.63
67397;BME280;57728;50.448;18.824;2022-10-16T08:02:51;98284.81;;;16.56;57.99
67397;BME280;57728;50.448;18.824;2022-10-16T08:04:55;98285.28;;;16.58;57.65
67397;BME280;57728;50.448;18.824;2022-10-16T08:06:57;98283.53;;;16.62;57.69
67397;BME280;57728;50.448;18.824;2022-10-16T08:08:58;98284.84;;;16.73;57.72
67397;BME280;57728;50.448;18.824;2022-10-16T08:11:03;98286.34;;;16.80;56.56
67397;BME280;57728;50.448;18.824;2022-10-16T08:13:05;98286.63;;;16.78;56.79
67397;BME280;57728;50.448;18.824;2022-10-16T08:15:07;98282.50;;;16.81;56.71
67397;BME280;57728;50.448;18.824;2022-10-16T08:17:09;98300.34;;;17.04;56.66
67397;BME280;57728;50.448;18.824;2022-10-16T08:19:10;98306.59;;;17.13;56.40
67397;BME280;57728;50.448;18.824;2022-10-16T08:21:16;98303.78;;;17.27;55.96
67397;BME280;57728;50.448;18.824;2022-10-16T08:23:20;98303.31;;;17.34;55.22
67397;BME280;57728;50.448;18.824;2022-10-16T08:25:23;98312.59;;;17.33;55.25
67397;BME280;57728;50.448;18.824;2022-10-16T08:27:24;98314.81;;;17.22;55.02
67397;BME280;57728;50.448;18.824;2022-10-16T08:29:26;98315.09;;;17.12;55.19
67397;BME280;57728;50.448;18.824;2022-10-16T08:31:28;98301.13;;;16.96;55.65
67397;BME280;57728;50.448;18.824;2022-10-16T08:33:30;98306.41;;;17.01;56.16
67397;BME280;57728;50.448;18.824;2022-10-16T08:35:31;98301.94;;;17.05;55.80
67397;BME280;57728;50.448;18.824;2022-10-16T08:37:33;98304.66;;;17.05;56.28
67397;BME280;57728;50.448;18.824;2022-10-16T08:39:34;98311.09;;;17.18;56.75
67397;BME280;57728;50.448;18.824;2022-10-16T08:48:48;98320.50;;;17.78;54.25
67397;BME280;57728;50.448;18.824;2022-10-16T08:50:52;98319.84;;;17.98;53.03
67397;BME280;57728;50.448;18.824;2022-10-16T08:52:55;98336.19;;;18.41;52.12
67397;BME280;57728;50.448;18.824;2022-10-16T08:54:58;98326.88;;;18.89;50.97
67397;BME280;57728;50.448;18.824;2022-10-16T08:57:11;98322.88;;;19.25;49.95
67397;BME280;57728;50.448;18.824;2022-10-16T08:59:19;98320.53;;;19.15;49.86
67397;BME280;57728;50.448;18.824;2022-10-16T09:01:22;98324.13;;;18.98;50.03
67397;BME280;57728;50.448;18.824;2022-10-16T09:03:45;98325.03;;;18.73;50.60
67397;BME280;57728;50.448;18.824;2022-10-16T09:15:55;98315.44;;;18.58;51.91
67397;BME280;57728;50.448;18.824;2022-10-16T09:20:55;98321.31;;;18.13;52.56
67397;BME280;57728;50.448;18.824;2022-10-16T09:23:26;98312.47;;;17.90;52.83
67397;BME280;57728;50.448;18.824;2022-10-16T09:25:31;98323.06;;;17.83;53.60
67397;BME280;57728;50.448;18.824;2022-10-16T09:27:35;98314.56;;;17.76;53.32
67397;BME280;57728;50.448;18.824;2022-10-16T09:29:36;98322.25;;;17.65;53.86
67397;BME280;57728;50.448;18.824;2022-10-16T09:31:37;98341.34;;;17.73;53.97
67397;BME280;57728;50.448;18.824;2022-10-16T09:33:41;98330.59;;;17.94;53.86
67397;BME280;57728;50.448;18.824;2022-10-16T09:35:48;98328.34;;;18.22;53.36
67397;BME280;57728;50.448;18.824;2022-10-16T09:37:54;98329.13;;;18.32;52.31
67397;BME280;57728;50.448;18.824;2022-10-16T09:39:56;98328.47;;;18.43;52.54
67397;BME280;57728;50.448;18.824;2022-10-16T09:41:57;98333.09;;;18.52;51.76
67397;BME280;57728;50.448;18.824;2022-10-16T09:44:01;98338.88;;;18.59;52.06
67397;BME280;57728;50.448;18.824;2022-10-16T09:46:08;98346.56;;;18.65;52.17
67397;BME280;57728;50.448;18.824;2022-10-16T09:48:22;98326.56;;;18.35;52.44
67397;BME280;57728;50.448;18.824;2022-10-16T09:50:28;98341.81;;;18.36;52.73
67397;BME280;57728;50.448;18.824;2022-10-16T09:52:30;98348.09;;;18.28;53.04
67397;BME280;57728;50.448;18.824;2022-10-16T09:54:32;98342.78;;;18.23;53.44
67397;BME280;57728;50.448;18.824;2022-10-16T09:56:36;98347.94;;;18.25;53.39
67397;BME280;57728;50.448;18.824;2022-10-16T09:58:43;98350.94;;;18.32;53.33
67397;BME280;57728;50.448;18.824;2022-10-16T10:00:53;98341.81;;;18.45;52.97
67397;BME280;57728;50.448;18.824;2022-10-16T10:02:55;98339.81;;;18.63;52.20
67397;BME280;57728;50.448;18.824;2022-10-16T10:04:58;98357.94;;;18.76;52.41
67397;BME280;57728;50.448;18.824;2022-10-16T10:07:00;98343.94;;;18.78;52.10
67397;BME280;57728;50.448;18.824;2022-10-16T10:14:23;98355.94;;;18.94;52.49
67397;BME280;57728;50.448;18.824;2022-10-16T10:16:30;98357.91;;;18.85;52.25
67397;BME280;57728;50.448;18.824;2022-10-16T10:18:32;98362.28;;;18.68;52.20
67397;BME280;57728;50.448;18.824;2022-10-16T10:20:35;98366.19;;;18.50;52.39
67397;BME280;57728;50.448;18.824;2022-10-16T10:22:44;98351.91;;;18.36;52.77
67397;BME280;57728;50.448;18.824;2022-10-16T10:25:00;98344.56;;;18.19;52.63
67397;BME280;57728;50.448;18.824;2022-10-16T10:27:18;98362.50;;;18.03;53.32
67397;BME280;57728;50.448;18.824;2022-10-16T10:29:38;98358.34;;;17.96;53.76
67397;BME280;57728;50.448;18.824;2022-10-16T10:32:06;98315.06;;;17.69;54.09
67397;BME280;57728;50.448;18.824;2022-10-16T10:36:55;98350.16;;;17.96;53.91
67397;BME280;57728;50.448;18.824;2022-10-16T10:46:20;98349.34;;;17.79;54.33
67397;BME280;57728;50.448;18.824;2022-10-16T10:51:31;98354.97;;;17.91;54.65
67397;BME280;57728;50.448;18.824;2022-10-16T11:01:44;98353.56;;;18.28;53.41
67397;BME280;57728;50.448;18.824;2022-10-16T11:06:51;98362.19;;;18.39;52.69
67397;BME280;57728;50.448;18.824;2022-10-16T11:11:45;98357.03;;;18.46;53.17
67397;BME280;57728;50.448;18.824;2022-10-16T11:14:00;98357.03;;;18.46;52.90
67397;BME280;57728;50.448;18.824;2022-10-16T11:18:57;98361.34;;;18.56;52.88
67397;BME280;57728;50.448;18.824;2022-10-16T11:21:12;98349.59;;;18.64;52.74
67397;BME280;57728;50.448;18.824;2022-10-16T11:23:27;98361.63;;;18.71;52.43
67397;BME280;57728;50.448;18.824;2022-10-16T11:25:38;98348.91;;;18.76;51.98
67397;BME280;57728;50.448;18.824;2022-10-16T11:30:22;98351.75;;;19.05;52.16
67397;BME280;57728;50.448;18.824;2022-10-16T11:32:34;98353.06;;;19.29;51.03
67397;BME280;57728;50.448;18.824;2022-10-16T11:34:57;98347.56;;;19.88;50.38
67397;BME280;57728;50.448;18.824;2022-10-16T11:37:19;98339.81;;;20.56;47.69
67397;BME280;57728;50.448;18.824;2022-10-16T11:39:29;98348.97;;;20.94;47.03
67397;BME280;57728;50.448;18.824;2022-10-16T11:43:45;98356.28;;;21.02;46.74
67397;BME280;57728;50.448;18.824;2022-10-16T11:46:03;98353.84;;;21.61;46.12
67397;BME280;57728;50.448;18.824;2022-10-16T11:48:27;98360.53;;;22.29;43.85
67397;BME280;57728;50.448;18.824;2022-10-16T11:50:41;98343.97;;;22.85;42.56
67397;BME280;57728;50.448;18.824;2022-10-16T11:53:15;98356.41;;;23.26;41.10
67397;BME280;57728;50.448;18.824;2022-10-16T11:55:31;98346.72;;;23.48;40.89
67397;BME280;57728;50.448;18.824;2022-10-16T11:57:47;98352.25;;;23.32;40.44
67397;BME280;57728;50.448;18.824;2022-10-16T12:00:08;98368.38;;;22.86;41.47
67397;BME280;57728;50.448;18.824;2022-10-16T12:05:18;98374.13;;;22.37;42.19
67397;BME280;57728;50.448;18.824;2022-10-16T12:07:46;98371.88;;;22.55;42.27
67397;BME280;57728;50.448;18.824;2022-10-16T12:10:24;98373.09;;;22.58;42.12